sensor_id;sensor_type;location;lat;lon;timestamp;temperature;humidity
58513;DHT22;44302;47.914;10.642;2023-04-23T06:22:21;10.50;99.90
58513;DHT22;44302;47.914;10.642;2023-04-23T06:28:07;10.60;99.90
58513;DHT22;44302;47.914;10.642;2023-04-23T06:32:46;10.60;99.90
58513;DHT22;44302;47.914;10.642;2023-04-23T06:36:34;11.10;99.90
58513;DHT22;44302;47.914;10.642;2023-04-23T06:57:55;10.80;99.90
58513;DHT22;44302;47.914;10.642;2023-04-23T07:04:06;10.80;99.90
58513;DHT22;44302;47.914;10.642;2023-04-23T07:10:40;10.80;99.90
58513;DHT22;44302;47.914;10.642;2023-04-23T07:15:35;11.20;99.90
58513;DHT22;44302;47.914;10.642;2023-04-23T07:19:31;10.80;99.90
58513;DHT22;44302;47.914;10.642;2023-04-23T07:23:22;10.90;99.90
58513;DHT22;44302;47.914;10.642;2023-04-23T07:25:48;11.20;99.90
58513;DHT22;44302;47.914;10.642;2023-04-23T07:30:21;11.50;99.90
58513;DHT22;44302;47.914;10.642;2023-04-23T07:32:47;11.50;99.90
58513;DHT22;44302;47.914;10.642;2023-04-23T07:35:13;11.80;99.90
58513;DHT22;44302;47.914;10.642;2023-04-23T07:37:39;11.90;99.90
58513;DHT22;44302;47.914;10.642;2023-04-23T07:40:05;12.10;99.90
58513;DHT22;44302;47.914;10.642;2023-04-23T07:42:32;12.10;99.90
58513;DHT22;44302;47.914;10.642;2023-04-23T07:44:58;12.00;99.90
58513;DHT22;44302;47.914;10.642;2023-04-23T07:47:23;11.90;99.90
58513;DHT22;44302;47.914;10.642;2023-04-23T07:49:49;11.90;99.90
58513;DHT22;44302;47.914;10.642;2023-04-23T07:52:15;12.00;99.90
58513;DHT22;44302;47.914;10.642;2023-04-23T07:54:41;12.00;99.90
58513;DHT22;44302;47.914;10.642;2023-04-23T07:57:07;12.40;99.90
58513;DHT22;44302;47.914;10.642;2023-04-23T07:59:32;13.40;99.90
58513;DHT22;44302;47.914;10.642;2023-04-23T08:01:58;14.70;99.90
58513;DHT22;44302;47.914;10.642;2023-04-23T08:04:24;15.10;99.90
58513;DHT22;44302;47.914;10.642;2023-04-23T08:06:51;16.20;99.90
58513;DHT22;44302;47.914;10.642;2023-04-23T08:09:17;17.00;99.90
58513;DHT22;44302;47.914;10.642;2023-04-23T08:11:43;17.00;99.90
58513;DHT22;44302;47.914;10.642;2023-04-23T08:14:09;17.40;99.90
58513;DHT22;44302;47.914;10.642;2023-04-23T08:16:34;17.20;99.90
58513;DHT22;44302;47.914;10.642;2023-04-23T08:19:00;16.60;99.90
58513;DHT22;44302;47.914;10.642;2023-04-23T08:21:26;16.40;99.90
58513;DHT22;44302;47.914;10.642;2023-04-23T08:23:53;16.90;99.90
58513;DHT22;44302;47.914;10.642;2023-04-23T08:26:19;16.90;99.90
58513;DHT22;44302;47.914;10.642;2023-04-23T08:28:45;16.90;99.90
58513;DHT22;44302;47.914;10.642;2023-04-23T08:31:12;17.00;99.90
58513;DHT22;44302;47.914;10.642;2023-04-23T08:33:38;17.70;99.90
58513;DHT22;44302;47.914;10.642;2023-04-23T08:36:05;18.60;99.90
58513;DHT22;44302;47.914;10.642;2023-04-23T08:38:31;18.80;99.90
58513;DHT22;44302;47.914;10.642;2023-04-23T08:40:58;18.90;99.90
58513;DHT22;44302;47.914;10.642;2023-04-23T08:46:13;17.40;99.90
58513;DHT22;44302;47.914;10.642;2023-04-23T08:48:40;16.50;99.90
58513;DHT22;44302;47.914;10.642;2023-04-23T08:51:09;15.90;99.90
58513;DHT22;44302;47.914;10.642;2023-04-23T08:53:36;15.60;99.90
58513;DHT22;44302;47.914;10.642;2023-04-23T08:56:04;15.60;99.90
58513;DHT22;44302;47.914;10.642;2023-04-23T08:58:31;15.80;99.90
58513;DHT22;44302;47.914;10.642;2023-04-23T09:00:57;16.90;99.90
58513;DHT22;44302;47.914;10.642;2023-04-23T09:03:24;18.10;99.90
58513;DHT22;44302;47.914;10.642;2023-04-23T09:05:50;18.70;99.90
58513;DHT22;44302;47.914;10.642;2023-04-23T09:08:20;19.40;99.90
58513;DHT22;44302;47.914;10.642;2023-04-23T09:10:46;18.40;99.90
58513;DHT22;44302;47.914;10.642;2023-04-23T09:13:12;17.20;99.90
58513;DHT22;44302;47.914;10.642;2023-04-23T09:15:39;16.30;99.90
58513;DHT22;44302;47.914;10.642;2023-04-23T09:18:09;16.40;99.90
58513;DHT22;44302;47.914;10.642;2023-04-23T09:20:35;16.70;99.90
58513;DHT22;44302;47.914;10.642;2023-04-23T09:23:06;16.60;99.90
58513;DHT22;44302;47.914;10.642;2023-04-23T09:25:32;16.20;99.90
58513;DHT22;44302;47.914;10.642;2023-04-23T09:27:58;16.00;99.90
58513;DHT22;44302;47.914;10.642;2023-04-23T09:30:25;15.80;99.90
58513;DHT22;44302;47.914;10.642;2023-04-23T09:32:52;16.00;99.90
58513;DHT22;44302;47.914;10.642;2023-04-23T09:35:18;17.10;99.90
58513;DHT22;44302;47.914;10.642;2023-04-23T09:37:47;18.00;99.90
58513;DHT22;44302;47.914;10.642;2023-04-23T09:40:21;19.10;99.90
58513;DHT22;44302;47.914;10.642;2023-04-23T09:42:49;19.20;99.90
58513;DHT22;44302;47.914;10.642;2023-04-23T09:45:17;18.50;99.90
58513;DHT22;44302;47.914;10.642;2023-04-23T09:47:53;17.80;99.90
58513;DHT22;44302;47.914;10.642;2023-04-23T09:50:35;17.20;99.90
58513;DHT22;44302;47.914;10.642;2023-04-23T09:53:03;16.80;99.90
58513;DHT22;44302;47.914;10.642;2023-04-23T09:55:30;16.70;99.90
58513;DHT22;44302;47.914;10.642;2023-04-23T09:58:00;16.50;99.90
58513;DHT22;44302;47.914;10.642;2023-04-23T10:00:32;16.40;99.90
58513;DHT22;44302;47.914;10.642;2023-04-23T10:02:58;16.70;99.90
58513;DHT22;44302;47.914;10.642;2023-04-23T10:05:25;17.10;99.90
58513;DHT22;44302;47.914;10.642;2023-04-23T10:07:50;17.20;99.90
58513;DHT22;44302;47.914;10.642;2023-04-23T10:10:19;17.40;99.90
58513;DHT22;44302;47.914;10.642;2023-04-23T10:12:46;17.20;99.90
58513;DHT22;44302;47.914;10.642;2023-04-23T10:15:13;17.10;99.90
58513;DHT22;44302;47.914;10.642;2023-04-23T10:17:39;16.90;99.90
58513;DHT22;44302;47.914;10.642;2023-04-23T10:20:07;16.80;99.90
58513;DHT22;44302;47.914;10.642;2023-04-23T10:22:34;16.90;99.90
58513;DHT22;44302;47.914;10.642;2023-04-23T10:25:08;17.10;99.90
58513;DHT22;44302;47.914;10.642;2023-04-23T10:27:40;17.20;99.90
58513;DHT22;44302;47.914;10.642;2023-04-23T10:30:07;17.30;99.90
58513;DHT22;44302;47.914;10.642;2023-04-23T10:32:33;17.50;99.90
58513;DHT22;44302;47.914;10.642;2023-04-23T10:34:59;17.70;99.90
58513;DHT22;44302;47.914;10.642;2023-04-23T10:37:25;17.80;99.90
58513;DHT22;44302;47.914;10.642;2023-04-23T10:40:03;17.70;99.90
58513;DHT22;44302;47.914;10.642;2023-04-23T10:42:29;17.60;99.90
58513;DHT22;44302;47.914;10.642;2023-04-23T10:44:55;17.50;99.90
58513;DHT22;44302;47.914;10.642;2023-04-23T10:47:23;17.70;99.90
58513;DHT22;44302;47.914;10.642;2023-04-23T10:49:48;17.90;99.90
58513;DHT22;44302;47.914;10.642;2023-04-23T10:52:17;18.00;99.90
58513;DHT22;44302;47.914;10.642;2023-04-23T10:54:48;18.00;99.90
58513;DHT22;44302;47.914;10.642;2023-04-23T10:57:13;17.80;99.90
58513;DHT22;44302;47.914;10.642;2023-04-23T10:59:50;17.60;99.90
58513;DHT22;44302;47.914;10.642;2023-04-23T11:02:16;17.40;99.90
58513;DHT22;44302;47.914;10.642;2023-04-23T11:04:52;17.20;99.90
58513;DHT22;44302;47.914;10.642;2023-04-23T11:07:19;17.20;99.90
58513;DHT22;44302;47.914;10.642;2023-04-23T11:09:46;17.20;99.90
58513;DHT22;44302;47.914;10.642;2023-04-23T11:14:48;17.00;99.90
58513;DHT22;44302;47.914;10.642;2023-04-23T11:17:22;16.90;99.90
58513;DHT22;44302;47.914;10.642;2023-04-23T11:22:45;16.90;99.90
58513;DHT22;44302;47.914;10.642;2023-04-23T11:25:13;17.20;99.90
58513;DHT22;44302;47.914;10.642;2023-04-23T11:27:41;17.20;99.90
58513;DHT22;44302;47.914;10.642;2023-04-23T11:32:43;18.30;99.90
58513;DHT22;44302;47.914;10.642;2023-04-23T11:35:09;19.10;99.90
58513;DHT22;44302;47.914;10.642;2023-04-23T11:37:39;19.60;99.90
58513;DHT22;44302;47.914;10.642;2023-04-23T11:40:10;20.00;99.90
58513;DHT22;44302;47.914;10.642;2023-04-23T11:42:46;20.30;99.90
58513;DHT22;44302;47.914;10.642;2023-04-23T11:45:24;20.10;99.90
58513;DHT22;44302;47.914;10.642;2023-04-23T11:47:57;20.00;99.90
58513;DHT22;44302;47.914;10.642;2023-04-23T11:50:26;20.10;99.90
58513;DHT22;44302;47.914;10.642;2023-04-23T11:52:53;20.00;99.90
58513;DHT22;44302;47.914;10.642;2023-04-23T11:55:19;19.60;99.90
58513;DHT22;44302;47.914;10.642;2023-04-23T11:57:47;19.40;99.90
58513;DHT22;44302;47.914;10.642;2023-04-23T12:00:14;19.40;99.90
58513;DHT22;44302;47.914;10.642;2023-04-23T12:03:02;19.70;99.90
58513;DHT22;44302;47.914;10.642;2023-04-23T12:05:30;19.70;99.90
58513;DHT22;44302;47.914;10.642;2023-04-23T12:08:15;19.40;99.90
58513;DHT22;44302;47.914;10.642;2023-04-23T12:10:45;19.60;99.90
58513;DHT22;44302;47.914;10.642;2023-04-23T12:13:24;19.60;99.90
58513;DHT22;44302;47.914;10.642;2023-04-23T12:15:55;19.40;99.90
58513;DHT22;44302;47.914;10.642;2023-04-23T12:18:35;19.20;99.90
58513;DHT22;44302;47.914;10.642;2023-04-23T12:21:05;19.00;99.90
58513;DHT22;44302;47.914;10.642;2023-04-23T12:23:31;18.70;99.90
58513;DHT22;44302;47.914;10.642;2023-04-23T12:26:01;18.50;99.90
58513;DHT22;44302;47.914;10.642;2023-04-23T12:28:31;18.60;99.90
58513;DHT22;44302;47.914;10.642;2023-04-23T12:31:01;18.60;99.90
58513;DHT22;44302;47.914;10.642;2023-04-23T12:33:30;18.30;99.90
58513;DHT22;44302;47.914;10.642;2023-04-23T12:35:56;18.20;99.90
58513;DHT22;44302;47.914;10.642;2023-04-23T12:38:29;18.60;99.90
58513;DHT22;44302;47.914;10.642;2023-04-23T12:40:58;19.10;99.90
58513;DHT22;44302;47.914;10.642;2023-04-23T12:43:25;19.90;99.90
58513;DHT22;44302;47.914;10.642;2023-04-23T12:45:52;21.10;99.90
58513;DHT22;44302;47.914;10.642;2023-04-23T12:48:18;22.30;99.90
58513;DHT22;44302;47.914;10.642;2023-04-23T12:50:45;23.10;99.20
58513;DHT22;44302;47.914;10.642;2023-04-23T12:53:11;23.40;99.90
58513;DHT22;44302;47.914;10.642;2023-04-23T12:55:37;24.10;98.20
58513;DHT22;44302;47.914;10.642;2023-04-23T12:58:07;22.90;99.60
58513;DHT22;44302;47.914;10.642;2023-04-23T13:00:33;21.90;98.00
58513;DHT22;44302;47.914;10.642;2023-04-23T13:03:00;21.50;99.80
58513;DHT22;44302;47.914;10.642;2023-04-23T13:05:25;21.30;99.10
58513;DHT22;44302;47.914;10.642;2023-04-23T13:07:51;21.10;98.50
58513;DHT22;44302;47.914;10.642;2023-04-23T13:10:18;20.70;99.90
58513;DHT22;44302;47.914;10.642;2023-04-23T13:12:43;20.90;99.90
58513;DHT22;44302;47.914;10.642;2023-04-23T13:15:10;21.50;98.20
58513;DHT22;44302;47.914;10.642;2023-04-23T13:17:37;21.70;97.10
58513;DHT22;44302;47.914;10.642;2023-04-23T13:20:03;22.70;97.60
58513;DHT22;44302;47.914;10.642;2023-04-23T13:22:29;23.50;95.60
58513;DHT22;44302;47.914;10.642;2023-04-23T13:24:56;24.20;94.00
58513;DHT22;44302;47.914;10.642;2023-04-23T13:27:27;23.80;93.40
58513;DHT22;44302;47.914;10.642;2023-04-23T13:29:53;23.40;94.80
58513;DHT22;44302;47.914;10.642;2023-04-23T13:32:19;23.40;94.70
58513;DHT22;44302;47.914;10.642;2023-04-23T13:34:45;23.60;93.70
58513;DHT22;44302;47.914;10.642;2023-04-23T13:37:11;23.80;93.30
58513;DHT22;44302;47.914;10.642;2023-04-23T13:39:37;23.20;92.80
58513;DHT22;44302;47.914;10.642;2023-04-23T13:42:03;22.00;93.90
58513;DHT22;44302;47.914;10.642;2023-04-23T13:44:32;21.10;96.20
58513;DHT22;44302;47.914;10.642;2023-04-23T13:46:57;20.30;97.80
58513;DHT22;44302;47.914;10.642;2023-04-23T13:49:26;19.60;97.60
58513;DHT22;44302;47.914;10.642;2023-04-23T13:51:55;19.20;99.10
58513;DHT22;44302;47.914;10.642;2023-04-23T13:54:25;18.80;99.90
58513;DHT22;44302;47.914;10.642;2023-04-23T13:56:57;18.60;99.90
58513;DHT22;44302;47.914;10.642;2023-04-23T13:59:23;18.30;99.90
58513;DHT22;44302;47.914;10.642;2023-04-23T14:01:49;18.10;99.90
58513;DHT22;44302;47.914;10.642;2023-04-23T14:04:15;18.00;99.90
58513;DHT22;44302;47.914;10.642;2023-04-23T14:06:42;18.00;99.90
58513;DHT22;44302;47.914;10.642;2023-04-23T14:09:07;18.00;99.90
58513;DHT22;44302;47.914;10.642;2023-04-23T14:11:33;18.50;99.90
58513;DHT22;44302;47.914;10.642;2023-04-23T14:13:59;18.70;99.90
58513;DHT22;44302;47.914;10.642;2023-04-23T14:16:25;18.60;99.90
58513;DHT22;44302;47.914;10.642;2023-04-23T14:18:51;18.30;99.90
58513;DHT22;44302;47.914;10.642;2023-04-23T14:21:17;18.00;99.90
58513;DHT22;44302;47.914;10.642;2023-04-23T14:26:40;17.90;99.90
58513;DHT22;44302;47.914;10.642;2023-04-23T14:31:42;18.10;99.90
58513;DHT22;44302;47.914;10.642;2023-04-23T14:34:08;18.30;99.90
58513;DHT22;44302;47.914;10.642;2023-04-23T14:36:33;18.40;99.90
58513;DHT22;44302;47.914;10.642;2023-04-23T14:38:59;18.70;99.90
58513;DHT22;44302;47.914;10.642;2023-04-23T14:41:30;18.60;99.90
58513;DHT22;44302;47.914;10.642;2023-04-23T14:43:56;18.60;99.90
58513;DHT22;44302;47.914;10.642;2023-04-23T14:46:21;18.80;99.90
58513;DHT22;44302;47.914;10.642;2023-04-23T14:48:47;19.40;99.90
58513;DHT22;44302;47.914;10.642;2023-04-23T14:51:13;21.00;99.90
58513;DHT22;44302;47.914;10.642;2023-04-23T14:53:38;21.50;99.60
58513;DHT22;44302;47.914;10.642;2023-04-23T14:56:04;21.50;99.10
58513;DHT22;44302;47.914;10.642;2023-04-23T14:58:30;21.00;99.40
58513;DHT22;44302;47.914;10.642;2023-04-23T15:00:55;20.30;99.90
58513;DHT22;44302;47.914;10.642;2023-04-23T15:03:21;19.40;99.90
58513;DHT22;44302;47.914;10.642;2023-04-23T15:05:47;18.60;99.90
58513;DHT22;44302;47.914;10.642;2023-04-23T15:08:12;18.00;99.90
58513;DHT22;44302;47.914;10.642;2023-04-23T15:10:38;17.80;99.90
58513;DHT22;44302;47.914;10.642;2023-04-23T15:13:27;17.70;99.90
58513;DHT22;44302;47.914;10.642;2023-04-23T15:16:01;17.70;99.90
58513;DHT22;44302;47.914;10.642;2023-04-23T15:18:28;18.10;99.90
58513;DHT22;44302;47.914;10.642;2023-04-23T15:20:53;18.90;99.90
58513;DHT22;44302;47.914;10.642;2023-04-23T15:23:19;19.20;99.90
58513;DHT22;44302;47.914;10.642;2023-04-23T15:25:47;19.50;99.90
58513;DHT22;44302;47.914;10.642;2023-04-23T15:28:13;20.00;99.90
58513;DHT22;44302;47.914;10.642;2023-04-23T15:30:40;20.40;99.90
58513;DHT22;44302;47.914;10.642;2023-04-23T15:33:07;20.40;99.90
58513;DHT22;44302;47.914;10.642;2023-04-23T15:35:33;20.40;99.90
58513;DHT22;44302;47.914;10.642;2023-04-23T15:37:58;20.30;99.90
58513;DHT22;44302;47.914;10.642;2023-04-23T15:40:27;20.20;99.90
58513;DHT22;44302;47.914;10.642;2023-04-23T15:42:53;19.90;99.90
58513;DHT22;44302;47.914;10.642;2023-04-23T15:45:19;19.80;99.90
58513;DHT22;44302;47.914;10.642;2023-04-23T15:47:45;20.00;99.90
58513;DHT22;44302;47.914;10.642;2023-04-23T15:50:11;20.60;99.50
58513;DHT22;44302;47.914;10.642;2023-04-23T15:52:37;21.00;98.20
58513;DHT22;44302;47.914;10.642;2023-04-23T15:55:04;20.60;98.80
58513;DHT22;44302;47.914;10.642;2023-04-23T15:57:30;20.00;99.90
58513;DHT22;44302;47.914;10.642;2023-04-23T15:59:56;19.30;99.90
58513;DHT22;44302;47.914;10.642;2023-04-23T16:02:22;18.80;99.90
58513;DHT22;44302;47.914;10.642;2023-04-23T16:04:47;18.10;99.90
58513;DHT22;44302;47.914;10.642;2023-04-23T16:07:15;17.80;99.90
58513;DHT22;44302;47.914;10.642;2023-04-23T16:09:41;17.50;99.90
58513;DHT22;44302;47.914;10.642;2023-04-23T16:12:06;17.40;99.90
58513;DHT22;44302;47.914;10.642;2023-04-23T16:14:32;17.40;99.90
58513;DHT22;44302;47.914;10.642;2023-04-23T16:16:58;17.40;99.90
58513;DHT22;44302;47.914;10.642;2023-04-23T16:19:24;17.20;99.90
58513;DHT22;44302;47.914;10.642;2023-04-23T16:21:49;17.00;99.90
58513;DHT22;44302;47.914;10.642;2023-04-23T16:24:15;16.80;99.90
58513;DHT22;44302;47.914;10.642;2023-04-23T16:26:42;16.70;99.90
58513;DHT22;44302;47.914;10.642;2023-04-23T16:29:07;16.50;99.90
58513;DHT22;44302;47.914;10.642;2023-04-23T16:31:33;16.40;99.90
58513;DHT22;44302;47.914;10.642;2023-04-23T16:33:59;16.30;99.90
58513;DHT22;44302;47.914;10.642;2023-04-23T16:36:24;16.20;99.90
58513;DHT22;44302;47.914;10.642;2023-04-23T16:38:50;16.10;99.90
